Time;durP1;ratioP1;P1;durP2;ratioP2;P2;SDS_P1;SDS_P2;PMS_P1;PMS_P2;Temp;Humidity;BMP_temperature;BMP_pressure;BME280_temperature;BME280_humidity;BME280_pressure;Samples;Min_cycle;Max_cycle;Signal;HPM_P1;HPM_P2
2021/12/15 00:02:19;;;;;;;24.00;12.93;;;9.00;97.50;;;;;;5051955;28;20264;-76
2021/12/15 00:04:46;;;;;;;19.10;10.73;;;9.00;97.50;;;;;;5053889;28;20500;-75
2021/12/15 00:07:12;;;;;;;20.97;11.73;;;9.00;97.50;;;;;;5053268;28;20423;-74
2021/12/15 00:09:37;;;;;;;17.93;10.50;;;9.00;97.60;;;;;;5052161;28;20821;-76
2021/12/15 00:12:04;;;;;;;20.07;11.30;;;9.10;97.60;;;;;;5052082;28;20564;-75
2021/12/15 00:14:32;;;;;;;20.17;10.67;;;9.10;97.60;;;;;;5053113;28;20269;-75
2021/12/15 00:16:58;;;;;;;17.67;11.13;;;9.00;97.50;;;;;;5053391;28;20409;-75
2021/12/15 00:19:24;;;;;;;21.77;12.47;;;9.00;97.60;;;;;;5053073;28;20421;-75
2021/12/15 00:21:50;;;;;;;22.23;11.70;;;9.00;97.60;;;;;;5053275;28;20582;-75
2021/12/15 00:24:16;;;;;;;18.07;10.60;;;9.00;97.50;;;;;;5053135;28;20434;-75
2021/12/15 00:26:41;;;;;;;21.00;12.60;;;9.00;97.50;;;;;;5052806;28;20158;-76
2021/12/15 00:29:07;;;;;;;27.63;13.50;;;9.00;97.60;;;;;;5051331;28;20197;-74
2021/12/15 00:31:35;;;;;;;18.63;11.17;;;9.00;97.50;;;;;;5035174;28;20208;-75
2021/12/15 00:34:04;;;;;;;19.73;11.20;;;9.00;97.60;;;;;;5035523;28;20779;-75
2021/12/15 00:36:30;;;;;;;21.00;11.73;;;9.00;97.60;;;;;;5051097;28;20448;-75
2021/12/15 00:38:57;;;;;;;17.70;9.87;;;9.00;97.90;;;;;;5051402;28;20444;-76
2021/12/15 00:41:22;;;;;;;21.87;12.47;;;9.00;97.60;;;;;;5034816;28;20431;-75
2021/12/15 00:43:48;;;;;;;17.50;10.20;;;9.00;97.60;;;;;;5052443;28;20190;-75
2021/12/15 00:46:14;;;;;;;20.77;10.60;;;9.00;97.60;;;;;;5052037;28;20184;-76
2021/12/15 00:48:41;;;;;;;20.70;10.93;;;9.00;97.60;;;;;;5051974;28;21004;-74
2021/12/15 00:51:07;;;;;;;19.43;11.50;;;9.00;97.60;;;;;;5051409;28;20416;-76
2021/12/15 00:53:33;;;;;;;23.77;10.57;;;9.00;98.00;;;;;;5051808;28;20978;-76
2021/12/15 00:55:59;;;;;;;14.40;9.10;;;9.00;97.60;;;;;;5051234;28;20551;-76
2021/12/15 00:58:25;;;;;;;16.30;10.93;;;9.10;97.70;;;;;;5052174;28;20229;-76
2021/12/15 01:00:56;;;;;;;16.80;10.03;;;9.10;97.70;;;;;;5034670;28;20181;-75
2021/12/15 01:03:22;;;;;;;18.10;9.87;;;9.00;97.60;;;;;;5052757;28;20475;-75
2021/12/15 01:05:52;;;;;;;18.97;11.90;;;9.00;97.60;;;;;;5052437;28;20413;-74
2021/12/15 01:08:21;;;;;;;18.43;8.90;;;9.00;97.70;;;;;;5051731;28;20436;-75
2021/12/15 01:11:08;;;;;;;17.07;9.93;;;9.00;97.70;;;;;;5052673;28;20408;-75
2021/12/15 01:21:54;;;;;;;14.93;9.63;;;9.00;97.80;;;;;;5051466;28;20427;-74
2021/12/15 01:24:21;;;;;;;17.33;10.50;;;9.00;97.90;;;;;;5052136;28;20407;-75
2021/12/15 01:26:46;;;;;;;15.37;10.63;;;9.00;97.90;;;;;;5050034;28;20411;-75
2021/12/15 01:29:14;;;;;;;17.73;10.20;;;9.00;98.00;;;;;;5050559;28;20674;-74
2021/12/15 01:31:40;;;;;;;16.90;10.20;;;9.10;98.10;;;;;;5051750;28;20404;-74
2021/12/15 01:34:06;;;;;;;16.50;9.43;;;9.10;98.00;;;;;;5052177;28;20397;-74
2021/12/15 01:36:32;;;;;;;15.27;9.10;;;9.10;97.90;;;;;;5051402;28;20196;-75
2021/12/15 01:38:57;;;;;;;11.73;7.73;;;9.10;97.90;;;;;;5051034;28;20641;-75
2021/12/15 01:41:24;;;;;;;12.90;8.33;;;9.20;98.00;;;;;;5050233;28;20177;-75
2021/12/15 01:49:28;;;;;;;11.63;6.67;;;9.30;97.90;;;;;;5052333;28;20442;-76
2021/12/15 01:51:55;;;;;;;14.87;7.53;;;9.30;97.80;;;;;;5051024;28;20432;-76
2021/12/15 01:54:24;;;;;;;14.07;7.40;;;9.30;97.70;;;;;;5052229;28;20530;-75
2021/12/15 01:56:50;;;;;;;11.30;7.10;;;9.30;97.70;;;;;;5051681;28;20412;-75
2021/12/15 01:59:20;;;;;;;13.87;7.90;;;9.30;97.70;;;;;;5065378;28;20427;-74
2021/12/15 02:01:46;;;;;;;12.57;6.30;;;9.40;97.60;;;;;;5060683;28;20764;-75
2021/12/15 02:04:12;;;;;;;6.00;3.93;;;9.40;97.60;;;;;;5041153;28;20494;-75
2021/12/15 02:06:42;;;;;;;7.60;4.20;;;9.40;97.50;;;;;;5063644;28;20419;-75
2021/12/15 02:09:09;;;;;;;5.97;3.40;;;9.50;97.40;;;;;;5055094;28;20439;-75
2021/12/15 02:11:35;;;;;;;4.87;2.73;;;9.50;97.20;;;;;;5054299;28;20458;-76
2021/12/15 02:14:01;;;;;;;5.17;3.37;;;9.50;97.10;;;;;;5054381;28;20554;-75
2021/12/15 02:16:28;;;;;;;3.53;3.07;;;9.50;96.80;;;;;;5053788;28;20582;-76
2021/12/15 02:18:54;;;;;;;3.23;2.70;;;9.60;96.80;;;;;;5053922;28;20205;-76
2021/12/15 02:21:24;;;;;;;5.83;3.20;;;9.60;96.70;;;;;;5054005;28;20408;-75
2021/12/15 02:23:54;;;;;;;5.80;4.10;;;9.60;96.60;;;;;;5053598;28;20222;-75
2021/12/15 02:26:50;;;;;;;5.00;3.40;;;9.60;96.60;;;;;;5054691;28;20420;-76
2021/12/15 02:29:21;;;;;;;5.70;4.00;;;9.70;96.60;;;;;;5035974;28;20530;-74
2021/12/15 02:32:03;;;;;;;7.60;5.30;;;9.60;96.50;;;;;;5054555;28;20412;-75
2021/12/15 02:37:15;;;;;;;5.23;3.30;;;9.70;96.40;;;;;;5054131;28;20891;-75
2021/12/15 02:39:43;;;;;;;5.07;3.60;;;9.70;96.50;;;;;;5055772;28;20632;-74
2021/12/15 02:42:09;;;;;;;5.53;3.90;;;9.70;96.40;;;;;;5053523;28;20499;-74
2021/12/15 02:44:35;;;;;;;9.60;3.70;;;9.70;96.40;;;;;;5052921;28;20559;-76
2021/12/15 02:47:01;;;;;;;6.10;3.77;;;9.70;96.30;;;;;;5053508;28;20173;-76
2021/12/15 02:49:28;;;;;;;8.27;3.10;;;9.70;96.20;;;;;;5053198;28;20194;-76
2021/12/15 02:51:57;;;;;;;6.27;3.40;;;9.70;96.30;;;;;;5053735;28;20867;-76
2021/12/15 02:54:24;;;;;;;4.50;2.97;;;9.60;96.30;;;;;;5054275;28;20507;-76
2021/12/15 02:56:52;;;;;;;5.60;3.47;;;9.60;96.20;;;;;;5036537;28;20423;-76
2021/12/15 02:59:31;;;;;;;5.27;3.20;;;9.60;96.20;;;;;;5052679;28;20436;-74
2021/12/15 03:04:46;;;;;;;7.30;3.27;;;9.60;96.20;;;;;;5054155;28;20770;-76
2021/12/15 03:15:30;;;;;;;6.33;3.07;;;9.60;96.10;;;;;;5052840;28;20950;-75
2021/12/15 03:18:01;;;;;;;4.77;3.10;;;9.70;96.10;;;;;;5052995;28;20432;-75
2021/12/15 03:20:34;;;;;;;6.30;4.30;;;9.70;96.10;;;;;;5054002;28;20447;-75
2021/12/15 03:23:01;;;;;;;4.40;3.20;;;9.70;95.80;;;;;;5053797;28;20408;-75
2021/12/15 03:25:30;;;;;;;5.17;3.90;;;9.70;95.90;;;;;;5054936;28;20751;-75
2021/12/15 03:33:36;;;;;;;6.80;2.70;;;9.70;95.70;;;;;;5053673;28;20519;-75
2021/12/15 03:36:08;;;;;;;4.43;2.87;;;9.70;95.70;;;;;;5052439;28;20462;-75
2021/12/15 03:38:36;;;;;;;3.60;2.50;;;9.60;95.70;;;;;;5053512;28;20448;-76
2021/12/15 03:41:05;;;;;;;4.20;2.87;;;9.60;95.60;;;;;;5052110;28;20438;-75
2021/12/15 03:43:33;;;;;;;3.50;2.47;;;9.60;95.60;;;;;;5053926;28;20507;-75
2021/12/15 03:46:03;;;;;;;8.00;2.83;;;9.60;95.60;;;;;;5051506;28;20416;-75
2021/12/15 03:48:32;;;;;;;4.37;2.90;;;9.60;95.50;;;;;;5053438;28;20463;-75
2021/12/15 03:50:58;;;;;;;3.17;2.27;;;9.60;95.50;;;;;;5052206;28;20421;-73
2021/12/15 03:53:26;;;;;;;5.00;2.63;;;9.60;95.40;;;;;;5053384;28;20417;-75
2021/12/15 03:55:52;;;;;;;7.00;2.90;;;9.60;95.70;;;;;;5052915;28;20942;-75
2021/12/15 03:58:23;;;;;;;8.13;3.67;;;9.60;95.40;;;;;;5052063;28;20455;-75
2021/12/15 04:00:57;;;;;;;5.00;2.90;;;9.60;95.70;;;;;;5053264;28;20409;-75
2021/12/15 04:03:29;;;;;;;3.30;2.40;;;9.60;96.10;;;;;;5053326;28;20415;-76
2021/12/15 04:05:56;;;;;;;4.10;2.30;;;9.60;96.30;;;;;;5053054;28;20422;-75
2021/12/15 04:08:23;;;;;;;4.70;2.80;;;9.60;96.70;;;;;;5053503;28;20439;-75
2021/12/15 04:10:49;;;;;;;5.80;3.00;;;9.50;97.00;;;;;;5052120;28;20420;-75
2021/12/15 04:13:16;;;;;;;10.57;2.97;;;9.40;97.10;;;;;;5054031;28;20396;-75
2021/12/15 04:16:05;;;;;;;7.40;3.40;;;9.40;97.30;;;;;;5060480;28;20432;-75
2021/12/15 04:18:31;;;;;;;6.97;3.87;;;9.40;97.50;;;;;;5063512;28;20424;-75
2021/12/15 04:20:58;;;;;;;6.97;2.80;;;9.40;97.70;;;;;;5050917;28;20419;-76
2021/12/15 04:23:24;;;;;;;5.40;3.67;;;9.40;97.70;;;;;;5052819;28;20414;-75
2021/12/15 04:25:54;;;;;;;5.43;3.70;;;9.40;97.70;;;;;;5052911;28;20423;-76
2021/12/15 04:28:34;;;;;;;6.87;3.40;;;9.40;97.70;;;;;;5051485;28;20460;-75
2021/12/15 04:31:07;;;;;;;4.30;3.70;;;9.40;97.70;;;;;;5052964;28;20923;-75
2021/12/15 04:33:45;;;;;;;6.23;3.10;;;9.40;97.60;;;;;;5053000;28;20415;-75
2021/12/15 04:36:13;;;;;;;3.97;3.30;;;9.40;97.60;;;;;;5034290;28;20993;-75
2021/12/15 04:38:41;;;;;;;4.37;2.60;;;9.40;97.60;;;;;;5052121;28;20934;-75
2021/12/15 04:41:09;;;;;;;5.57;2.53;;;9.40;97.60;;;;;;5052864;28;20407;-75
2021/12/15 04:43:39;;;;;;;4.87;2.70;;;9.40;97.60;;;;;;5051344;28;20396;-74
2021/12/15 04:46:06;;;;;;;4.70;3.00;;;9.40;97.70;;;;;;5052566;28;20415;-75
2021/12/15 04:48:32;;;;;;;6.70;3.40;;;9.40;97.80;;;;;;5050966;28;20483;-75
2021/12/15 04:50:58;;;;;;;6.00;3.20;;;9.40;97.80;;;;;;5052478;28;20404;-75
2021/12/15 04:53:24;;;;;;;2.73;1.80;;;9.40;97.80;;;;;;5051366;28;20411;-74
2021/12/15 04:55:50;;;;;;;2.90;2.30;;;9.40;97.80;;;;;;5052368;28;20450;-74
2021/12/15 04:58:16;;;;;;;3.50;2.67;;;9.40;97.80;;;;;;5052760;28;20276;-75
2021/12/15 05:00:52;;;;;;;3.43;2.17;;;9.40;97.90;;;;;;5053918;28;20436;-74
2021/12/15 05:03:18;;;;;;;3.57;2.53;;;9.40;97.80;;;;;;5053767;28;20473;-75
2021/12/15 05:05:44;;;;;;;4.13;3.00;;;9.40;97.80;;;;;;5052519;28;20413;-76
2021/12/15 05:08:10;;;;;;;12.50;3.60;;;9.40;97.80;;;;;;5054036;28;20181;-75
2021/12/15 05:10:37;;;;;;;4.00;3.20;;;9.40;97.90;;;;;;5055216;28;20503;-76
2021/12/15 05:13:04;;;;;;;5.20;2.93;;;9.40;97.90;;;;;;5051989;28;20404;-74
2021/12/15 05:15:31;;;;;;;5.53;3.20;;;9.40;97.90;;;;;;5056186;28;20985;-75
2021/12/15 05:17:57;;;;;;;3.50;2.87;;;9.40;98.00;;;;;;5063952;28;20497;-75
2021/12/15 05:20:24;;;;;;;4.40;3.03;;;9.40;98.00;;;;;;5053431;28;20408;-76
2021/12/15 05:22:51;;;;;;;4.70;3.30;;;9.40;98.00;;;;;;5052548;28;20439;-75
2021/12/15 05:25:16;;;;;;;5.37;3.40;;;9.40;98.10;;;;;;5052046;28;20423;-75
2021/12/15 05:27:42;;;;;;;6.60;3.33;;;9.40;98.00;;;;;;5052002;28;20444;-75
2021/12/15 05:30:10;;;;;;;3.70;2.70;;;9.50;98.00;;;;;;5063591;28;20168;-75
2021/12/15 05:32:37;;;;;;;4.80;3.20;;;9.40;98.00;;;;;;5073940;28;20169;-75
2021/12/15 05:35:04;;;;;;;4.20;2.90;;;9.40;98.10;;;;;;5055157;28;20455;-77
2021/12/15 05:37:30;;;;;;;5.97;3.30;;;9.40;98.10;;;;;;5053013;28;20469;-74
2021/12/15 05:39:56;;;;;;;4.70;3.10;;;9.40;98.00;;;;;;5071217;22;20487;-76
2021/12/15 05:42:23;;;;;;;3.83;2.50;;;9.40;98.10;;;;;;5073923;28;20172;-76
2021/12/15 05:44:49;;;;;;;4.77;2.93;;;9.40;98.10;;;;;;5076682;28;20475;-76
2021/12/15 05:47:17;;;;;;;4.47;3.00;;;9.50;98.10;;;;;;5079152;28;20439;-77
2021/12/15 05:49:43;;;;;;;4.93;2.97;;;9.50;98.10;;;;;;5075550;28;20422;-76
2021/12/15 05:52:09;;;;;;;4.50;2.60;;;9.50;98.00;;;;;;5077913;28;20411;-77
2021/12/15 05:54:36;;;;;;;4.07;2.67;;;9.50;97.90;;;;;;5076651;28;20407;-76
2021/12/15 05:57:02;;;;;;;2.87;2.40;;;9.50;97.80;;;;;;5070685;28;20957;-77
2021/12/15 05:59:28;;;;;;;4.40;2.60;;;9.50;97.90;;;;;;5069212;28;20434;-76
2021/12/15 06:01:54;;;;;;;4.70;2.87;;;9.50;97.80;;;;;;5037376;28;20492;-77
2021/12/15 06:04:21;;;;;;;5.07;3.00;;;9.50;97.90;;;;;;5031254;28;20166;-76
2021/12/15 06:06:47;;;;;;;3.40;2.50;;;9.50;97.80;;;;;;5031898;28;20504;-78
2021/12/15 06:09:13;;;;;;;5.73;2.50;;;9.40;97.90;;;;;;5035106;28;20429;-77
2021/12/15 06:11:40;;;;;;;4.83;2.87;;;9.40;98.00;;;;;;5051634;28;20470;-77
2021/12/15 06:14:06;;;;;;;4.50;2.87;;;9.40;98.00;;;;;;5048211;28;20424;-77
2021/12/15 06:16:33;;;;;;;7.37;3.30;;;9.40;98.10;;;;;;5050743;28;20917;-78
2021/12/15 06:19:00;;;;;;;3.47;2.70;;;9.40;98.30;;;;;;5044539;28;20447;-77
2021/12/15 06:21:26;;;;;;;3.97;2.87;;;9.30;98.40;;;;;;5051194;28;20404;-76
2021/12/15 06:23:52;;;;;;;4.47;2.80;;;9.30;98.60;;;;;;5050769;28;20969;-77
2021/12/15 06:26:19;;;;;;;4.53;2.73;;;9.20;98.70;;;;;;5049857;28;20420;-80
2021/12/15 06:28:45;;;;;;;4.30;2.70;;;9.20;98.80;;;;;;5043432;28;20243;-78
2021/12/15 06:31:14;;;;;;;3.00;2.43;;;9.20;99.00;;;;;;5051051;28;20911;-77
2021/12/15 06:33:41;;;;;;;5.33;2.77;;;9.20;99.10;;;;;;5050916;28;20417;-77
2021/12/15 06:36:08;;;;;;;8.57;2.30;;;9.20;99.20;;;;;;5043270;28;20469;-76
2021/12/15 06:38:40;;;;;;;5.30;2.63;;;9.20;99.30;;;;;;5048516;28;20463;-76
2021/12/15 06:41:08;;;;;;;4.43;2.77;;;9.30;99.30;;;;;;5037818;28;20444;-78
2021/12/15 06:43:36;;;;;;;8.00;2.97;;;9.20;99.30;;;;;;5043006;28;20424;-76
2021/12/15 06:59:26;;;;;;;6.40;4.17;;;9.40;99.30;;;;;;5054439;28;20784;-76
2021/12/15 07:01:52;;;;;;;7.77;4.20;;;9.40;99.20;;;;;;5053131;28;20451;-76
2021/12/15 07:04:19;;;;;;;7.70;5.00;;;9.40;99.20;;;;;;5052864;28;20182;-77
2021/12/15 07:06:46;;;;;;;7.80;5.43;;;9.40;99.30;;;;;;5046487;28;20485;-77
2021/12/15 07:09:12;;;;;;;9.13;4.43;;;9.40;99.30;;;;;;5050772;28;20427;-77
2021/12/15 07:11:38;;;;;;;7.67;4.50;;;9.40;99.30;;;;;;5072186;28;20406;-76
2021/12/15 07:14:04;;;;;;;11.80;5.90;;;9.40;99.30;;;;;;5054142;28;20495;-77
2021/12/15 07:16:32;;;;;;;7.00;4.80;;;9.50;99.30;;;;;;5043564;28;20248;-79
2021/12/15 07:19:08;;;;;;;6.80;3.27;;;9.50;99.20;;;;;;5036871;28;20186;-78
2021/12/15 07:21:37;;;;;;;7.77;4.20;;;9.50;99.10;;;;;;5054045;28;20431;-78
2021/12/15 07:24:03;;;;;;;14.37;4.33;;;9.50;99.00;;;;;;5038865;28;20416;-76
2021/12/15 07:26:29;;;;;;;6.13;3.77;;;9.50;99.00;;;;;;5035322;28;20405;-78
2021/12/15 07:28:55;;;;;;;8.90;4.30;;;9.60;99.00;;;;;;5017163;28;20991;-78
2021/12/15 07:31:21;;;;;;;6.83;3.70;;;9.60;98.90;;;;;;5033627;28;20179;-77
2021/12/15 07:33:47;;;;;;;6.60;3.73;;;9.60;98.80;;;;;;5041454;28;20558;-77
2021/12/15 07:36:13;;;;;;;9.80;3.97;;;9.60;98.80;;;;;;5054778;28;20487;-76
2021/12/15 07:38:41;;;;;;;6.57;3.60;;;9.60;98.70;;;;;;5054888;28;20189;-77
2021/12/15 07:41:23;;;;;;;9.73;5.17;;;9.60;98.70;;;;;;5053550;28;20451;-77
2021/12/15 07:43:50;;;;;;;7.30;3.17;;;9.60;98.70;;;;;;5049147;28;20440;-78
2021/12/15 07:46:16;;;;;;;9.37;3.57;;;9.60;98.50;;;;;;5036069;28;20908;-80
2021/12/15 07:48:42;;;;;;;8.20;3.37;;;9.60;98.40;;;;;;5035672;28;20491;-77
2021/12/15 07:51:09;;;;;;;4.70;2.70;;;9.60;98.40;;;;;;5036441;28;20549;-77
2021/12/15 07:53:40;;;;;;;8.80;3.10;;;9.60;98.30;;;;;;5057101;28;20166;-80
2021/12/15 07:56:07;;;;;;;5.27;3.17;;;9.60;98.30;;;;;;5057365;28;20444;-79
2021/12/15 07:58:33;;;;;;;8.57;4.23;;;9.60;98.30;;;;;;5039140;28;20558;-78
2021/12/15 08:01:02;;;;;;;4.10;2.70;;;9.50;98.20;;;;;;5038893;28;20408;-79
2021/12/15 08:03:28;;;;;;;3.73;2.17;;;9.60;98.40;;;;;;5039412;28;20474;-77
2021/12/15 08:05:54;;;;;;;7.93;2.90;;;9.60;98.30;;;;;;5059989;28;20427;-76
2021/12/15 08:08:21;;;;;;;7.10;3.37;;;9.60;98.30;;;;;;5075978;28;20479;-77
2021/12/15 08:10:49;;;;;;;4.07;2.47;;;9.60;98.30;;;;;;5076180;28;20415;-77
2021/12/15 08:13:15;;;;;;;5.20;2.83;;;9.60;98.30;;;;;;5082895;28;20434;-77
2021/12/15 08:15:42;;;;;;;4.13;3.20;;;9.60;98.30;;;;;;5067638;28;20785;-78
2021/12/15 08:18:08;;;;;;;5.70;4.03;;;9.60;98.20;;;;;;5059475;28;20910;-78
2021/12/15 08:20:35;;;;;;;9.23;3.50;;;9.60;98.20;;;;;;5061616;28;20495;-78
2021/12/15 08:23:03;;;;;;;4.20;3.17;;;9.60;98.30;;;;;;5058396;28;20471;-79
2021/12/15 08:25:31;;;;;;;5.83;2.90;;;9.60;98.50;;;;;;5040790;28;20509;-79
2021/12/15 08:27:58;;;;;;;6.57;2.70;;;9.80;98.90;;;;;;5040681;28;20516;-78
2021/12/15 08:30:28;;;;;;;5.27;2.40;;;10.00;97.70;;;;;;5054565;28;20482;-77
2021/12/15 08:32:56;;;;;;;5.37;2.83;;;10.00;96.90;;;;;;5056692;28;20428;-78
2021/12/15 08:35:27;;;;;;;5.87;3.30;;;10.00;96.50;;;;;;5056169;28;20444;-79
2021/12/15 08:37:54;;;;;;;5.53;3.30;;;9.90;97.40;;;;;;5040861;28;20404;-79
2021/12/15 08:40:22;;;;;;;5.17;2.90;;;9.90;97.40;;;;;;5059422;28;20444;-79
2021/12/15 08:42:47;;;;;;;4.63;3.03;;;9.90;97.50;;;;;;5055250;28;20481;-77
2021/12/15 08:45:13;;;;;;;5.00;3.27;;;9.90;97.60;;;;;;5062107;28;20434;-78
2021/12/15 08:47:39;;;;;;;3.97;3.00;;;9.90;97.70;;;;;;5064874;28;20178;-76
2021/12/15 08:50:12;;;;;;;4.57;3.40;;;9.90;97.60;;;;;;5063249;28;20458;-78
2021/12/15 08:52:38;;;;;;;5.37;3.43;;;9.90;97.80;;;;;;5057336;28;20169;-79
2021/12/15 08:55:05;;;;;;;5.40;2.77;;;9.90;97.80;;;;;;5057597;28;20827;-78
2021/12/15 08:57:32;;;;;;;6.63;3.77;;;9.90;97.80;;;;;;5058371;28;20415;-82
2021/12/15 09:00:03;;;;;;;4.70;3.10;;;9.90;98.00;;;;;;5064241;28;20420;-78
2021/12/15 09:02:29;;;;;;;6.87;4.00;;;9.90;97.90;;;;;;5063804;28;20412;-78
2021/12/15 09:04:55;;;;;;;10.17;4.80;;;9.90;98.00;;;;;;5062402;28;20577;-77
2021/12/15 09:07:20;;;;;;;6.67;4.27;;;9.90;98.00;;;;;;5072188;28;20177;-78
2021/12/15 09:09:46;;;;;;;22.30;14.83;;;9.90;98.10;;;;;;5058595;28;20706;-77
2021/12/15 09:12:12;;;;;;;10.17;8.00;;;10.00;97.60;;;;;;5061450;28;20173;-77
2021/12/15 09:14:37;;;;;;;6.60;4.70;;;10.00;97.60;;;;;;5059295;28;20176;-79
2021/12/15 09:17:05;;;;;;;6.00;4.90;;;10.00;97.60;;;;;;5056400;28;20177;-79
2021/12/15 09:19:31;;;;;;;11.40;4.40;;;10.00;97.50;;;;;;5049289;28;20200;-79
2021/12/15 09:21:57;;;;;;;10.13;3.83;;;10.00;97.50;;;;;;5044082;28;20412;-77
2021/12/15 09:24:23;;;;;;;8.63;4.80;;;10.00;97.50;;;;;;5040681;28;20954;-78
2021/12/15 09:26:49;;;;;;;10.93;4.57;;;10.00;97.50;;;;;;5037616;28;20410;-78
2021/12/15 09:29:15;;;;;;;7.10;4.60;;;10.00;97.40;;;;;;5054799;28;20613;-79
2021/12/15 09:31:42;;;;;;;14.07;4.37;;;10.00;97.80;;;;;;5058175;28;20451;-79
2021/12/15 09:34:11;;;;;;;8.83;4.10;;;10.00;97.50;;;;;;5056403;28;20437;-79
2021/12/15 09:36:37;;;;;;;7.03;4.37;;;10.00;97.60;;;;;;5050093;28;20456;-80
2021/12/15 09:39:09;;;;;;;5.30;3.70;;;10.10;97.70;;;;;;5044164;28;20444;-80
2021/12/15 09:41:35;;;;;;;10.00;4.30;;;10.10;97.50;;;;;;5056786;28;20435;-80
2021/12/15 09:44:07;;;;;;;11.13;5.30;;;10.20;97.70;;;;;;5058362;28;20568;-80
2021/12/15 10:19:56;;;;;;;4.20;2.57;;;10.30;96.10;;;;;;5061944;28;20572;-79
2021/12/15 10:25:11;;;;;;;6.37;3.07;;;10.30;96.30;;;;;;5071893;28;20427;-80
2021/12/15 10:27:43;;;;;;;5.53;2.37;;;10.40;96.40;;;;;;5059905;28;20767;-78
2021/12/15 10:30:14;;;;;;;5.00;1.93;;;10.40;96.20;;;;;;5051586;28;20478;-78
2021/12/15 10:32:43;;;;;;;11.50;7.07;;;10.40;95.90;;;;;;5062331;28;20937;-77
2021/12/15 10:35:13;;;;;;;21.03;11.10;;;10.40;95.80;;;;;;5061299;28;20456;-77
2021/12/15 10:37:40;;;;;;;2.70;1.80;;;10.40;96.00;;;;;;5051439;28;20424;-78
2021/12/15 10:40:20;;;;;;;2.50;1.77;;;10.30;96.00;;;;;;5064283;28;20431;-78
2021/12/15 10:42:58;;;;;;;3.57;2.53;;;10.40;96.00;;;;;;5065763;28;20453;-78
2021/12/15 10:45:24;;;;;;;18.73;8.57;;;10.40;96.00;;;;;;5066014;28;20477;-78
2021/12/15 10:47:52;;;;;;;9.30;5.37;;;10.40;95.80;;;;;;5060720;28;20428;-77
2021/12/15 10:50:21;;;;;;;3.10;2.27;;;10.40;95.90;;;;;;5060501;28;20198;-79
2021/12/15 10:53:05;;;;;;;3.53;2.13;;;10.50;96.00;;;;;;5062733;28;20469;-80
2021/12/15 10:55:35;;;;;;;4.70;2.13;;;10.50;95.80;;;;;;5062257;28;20456;-78
2021/12/15 10:58:20;;;;;;;3.67;2.30;;;10.60;95.80;;;;;;5061268;28;20408;-79
2021/12/15 11:00:46;;;;;;;2.90;1.70;;;10.60;95.90;;;;;;5046473;28;20436;-78
2021/12/15 11:03:16;;;;;;;2.33;1.80;;;10.60;95.00;;;;;;5070690;28;20787;-78
2021/12/15 11:05:42;;;;;;;8.53;5.53;;;10.60;95.20;;;;;;5039878;28;20258;-80
2021/12/15 11:08:08;;;;;;;3.83;2.00;;;10.70;95.20;;;;;;5050196;28;20430;-78
2021/12/15 11:10:37;;;;;;;5.60;2.17;;;10.70;95.10;;;;;;5055949;28;20433;-78
2021/12/15 11:13:09;;;;;;;4.60;2.80;;;10.70;95.00;;;;;;5083957;28;20439;-79
2021/12/15 11:15:43;;;;;;;3.43;2.13;;;10.70;94.80;;;;;;5033762;28;20541;-78
2021/12/15 11:18:21;;;;;;;6.40;2.50;;;10.70;94.90;;;;;;5054163;28;20790;-79
2021/12/15 11:20:49;;;;;;;8.67;3.40;;;10.70;94.90;;;;;;5054320;28;20531;-78
2021/12/15 11:23:19;;;;;;;4.30;2.90;;;10.70;95.00;;;;;;5078863;28;20428;-78
2021/12/15 11:26:01;;;;;;;7.63;4.37;;;10.70;95.00;;;;;;5061807;28;20438;-79
2021/12/15 11:28:29;;;;;;;13.90;8.80;;;10.70;94.90;;;;;;5059947;28;20448;-79
2021/12/15 11:31:05;;;;;;;4.40;3.40;;;10.80;94.90;;;;;;5041385;28;20431;-78
2021/12/15 11:34:00;;;;;;;5.97;2.87;;;10.80;95.00;;;;;;5058555;28;20416;-78
2021/12/15 11:36:43;;;;;;;7.40;3.37;;;10.80;94.90;;;;;;5042231;28;20472;-79
2021/12/15 11:39:24;;;;;;;10.90;4.50;;;10.80;94.90;;;;;;5077013;23;20476;-72
2021/12/15 11:41:53;;;;;;;4.13;2.63;;;10.90;95.00;;;;;;5054484;28;20432;-71
2021/12/15 11:44:25;;;;;;;4.67;2.33;;;10.80;94.50;;;;;;5051591;28;20433;-71
2021/12/15 11:47:01;;;;;;;40.47;23.53;;;10.80;94.70;;;;;;5051785;28;20423;-72
2021/12/15 11:49:30;;;;;;;11.37;6.93;;;10.80;94.80;;;;;;5052747;28;20455;-71
2021/12/15 11:52:12;;;;;;;12.70;6.93;;;10.90;94.90;;;;;;5033739;28;20433;-71
2021/12/15 11:54:44;;;;;;;7.20;3.47;;;10.90;94.90;;;;;;5028047;28;20431;-72
2021/12/15 11:57:24;;;;;;;7.20;3.47;;;11.00;94.70;;;;;;5033023;28;20429;-70
2021/12/15 11:59:56;;;;;;;4.07;2.23;;;11.00;95.10;;;;;;5038684;28;20522;-70
2021/12/15 12:02:33;;;;;;;4.77;3.87;;;11.00;94.90;;;;;;5049263;28;20460;-71
2021/12/15 12:05:05;;;;;;;4.73;3.70;;;11.10;94.80;;;;;;5032327;28;20413;-71
2021/12/15 12:07:47;;;;;;;6.10;3.20;;;11.10;94.50;;;;;;5016846;28;20429;-72
2021/12/15 12:10:30;;;;;;;11.50;4.07;;;11.10;94.30;;;;;;5031713;28;20471;-71
2021/12/15 12:13:08;;;;;;;3.10;2.40;;;11.00;94.50;;;;;;5033250;28;20456;-72
2021/12/15 12:15:40;;;;;;;3.80;2.70;;;11.00;94.50;;;;;;5020940;28;20444;-72
2021/12/15 12:18:12;;;;;;;4.77;3.30;;;11.00;95.00;;;;;;5044102;28;20441;-71
2021/12/15 12:20:43;;;;;;;4.17;2.90;;;11.00;94.70;;;;;;5037653;28;20483;-72
2021/12/15 12:23:13;;;;;;;5.17;2.83;;;11.00;94.80;;;;;;5042689;28;20421;-71
2021/12/15 12:25:47;;;;;;;4.00;3.13;;;11.00;94.80;;;;;;5039781;28;20420;-73
2021/12/15 12:28:19;;;;;;;3.70;2.97;;;11.00;94.90;;;;;;5048191;28;20421;-73
2021/12/15 12:30:52;;;;;;;11.90;8.20;;;11.00;94.90;;;;;;5043074;28;20437;-72
2021/12/15 12:33:20;;;;;;;7.00;4.27;;;11.00;94.90;;;;;;5040942;28;20416;-73
2021/12/15 12:35:54;;;;;;;5.50;4.00;;;11.00;94.70;;;;;;5061045;28;20483;-73
2021/12/15 12:38:24;;;;;;;5.00;4.50;;;11.10;94.80;;;;;;5046047;28;20425;-71
2021/12/15 12:40:55;;;;;;;4.47;3.37;;;11.10;94.80;;;;;;5035673;28;20520;-71
2021/12/15 12:43:23;;;;;;;9.80;3.73;;;11.20;95.40;;;;;;5027177;28;20413;-71
2021/12/15 12:46:36;;;;;;;4.83;3.10;;;11.30;94.70;;;;;;5042411;28;20470;-71
2021/12/15 13:00:35;;;;;;;3.07;2.77;;;11.60;94.30;;;;;;5041829;28;20444;-71
